createdAt,value
2022-08-03T00:00:24.134Z,99309.19
2022-08-03T00:02:50.758Z,99317.09
2022-08-03T00:05:17.707Z,99315.81
2022-08-03T00:07:44.239Z,99307.41
2022-08-03T00:10:13.488Z,99311.34
2022-08-03T00:12:39.999Z,99309.03
2022-08-03T00:15:08.326Z,99306.50
2022-08-03T00:17:53.099Z,99301.44
2022-08-03T00:20:21.955Z,99302.03
2022-08-03T00:22:49.961Z,99305.59
2022-08-03T00:25:16.837Z,99301.38
2022-08-03T00:27:43.683Z,99293.41
2022-08-03T00:30:10.693Z,99299.25
2022-08-03T00:32:37.150Z,99299.59
2022-08-03T00:35:09.215Z,99295.19
2022-08-03T00:37:40.838Z,99303.53
2022-08-03T00:40:13.827Z,99299.16
2022-08-03T00:42:50.757Z,99300.75
2022-08-03T00:45:18.572Z,99293.00
2022-08-03T00:47:45.997Z,99290.66
2022-08-03T00:50:13.296Z,99288.97
2022-08-03T00:52:40.420Z,99288.53
2022-08-03T00:55:08.002Z,99292.47
2022-08-03T00:57:34.522Z,99291.16
2022-08-03T01:00:01.197Z,99298.84
2022-08-03T01:02:29.251Z,99296.50
2022-08-03T01:04:56.452Z,99292.69
2022-08-03T01:08:00.343Z,99299.53
2022-08-03T01:10:54.572Z,99294.13
2022-08-03T01:14:20.177Z,99297.03
2022-08-03T01:16:59.808Z,99297.84
2022-08-03T01:20:02.136Z,99299.91
2022-08-03T01:23:10.573Z,99297.31
2022-08-03T01:26:05.967Z,99294.97
2022-08-03T01:28:50.758Z,99295.34
2022-08-03T01:31:23.897Z,99299.75
2022-08-03T01:33:58.751Z,99296.38
2022-08-03T01:36:33.828Z,99295.47
2022-08-03T01:39:01.849Z,99290.41
2022-08-03T01:41:44.611Z,99296.03
2022-08-03T01:44:30.029Z,99291.84
2022-08-03T01:47:01.315Z,99285.34
2022-08-03T01:49:32.409Z,99287.25
2022-08-03T01:52:04.947Z,99298.72
2022-08-03T01:54:40.648Z,99293.50
2022-08-03T01:57:09.489Z,99290.31
2022-08-03T01:59:37.402Z,99291.16
2022-08-03T02:02:31.886Z,99293.22
2022-08-03T02:04:54.268Z,99296.88
2022-08-03T02:07:21.170Z,99288.84
2022-08-03T02:09:52.474Z,99285.16
2022-08-03T02:12:20.663Z,99295.81
2022-08-03T02:14:49.353Z,99288.69
2022-08-03T02:17:16.530Z,99286.00
2022-08-03T02:19:43.765Z,99292.81
2022-08-03T02:22:12.921Z,99296.91
2022-08-03T02:24:40.031Z,99288.78
2022-08-03T02:27:18.751Z,99288.97
2022-08-03T02:29:48.756Z,99285.13
2022-08-03T02:32:20.364Z,99283.44
2022-08-03T02:34:51.567Z,99278.59
2022-08-03T02:37:20.109Z,99287.94
2022-08-03T02:39:48.851Z,99287.75
2022-08-03T02:42:18.955Z,99287.94
2022-08-03T02:44:49.882Z,99293.53
2022-08-03T02:47:20.946Z,99281.38
2022-08-03T02:49:52.154Z,99296.13
2022-08-03T02:52:23.054Z,99287.72
2022-08-03T02:54:53.225Z,99288.09
2022-08-03T02:57:21.621Z,99288.09
2022-08-03T02:59:49.679Z,99280.53
2022-08-03T03:02:18.290Z,99288.00
2022-08-03T03:05:52.134Z,99283.59
2022-08-03T03:07:39.799Z,99284.63
2022-08-03T03:10:18.117Z,99284.53
2022-08-03T03:12:46.570Z,99290.84
2022-08-03T03:15:13.121Z,99289.34
2022-08-03T03:17:41.042Z,99287.66
2022-08-03T03:20:08.892Z,99283.94
2022-08-03T03:22:36.908Z,99290.53
2022-08-03T03:25:05.583Z,99288.69
2022-08-03T03:27:34.001Z,99286.63
2022-08-03T03:30:00.747Z,99291.88
2022-08-03T03:32:28.923Z,99284.75
2022-08-03T03:34:56.979Z,99286.63
2022-08-03T03:37:23.595Z,99283.94
2022-08-03T03:39:50.113Z,99289.34
2022-08-03T03:42:17.101Z,99288.47
2022-08-03T03:44:43.901Z,99292.25
2022-08-03T03:47:10.628Z,99286.81
2022-08-03T03:49:40.383Z,99290.38
2022-08-03T03:52:07.207Z,99292.06
2022-08-03T03:54:44.451Z,99299.31
2022-08-03T03:57:13.751Z,99290.72
2022-08-03T03:59:44.427Z,99298.19
2022-08-03T04:02:12.037Z,99294.47
2022-08-03T04:04:57.997Z,99297.53
2022-08-03T04:07:45.389Z,99289.13
2022-08-03T04:10:42.192Z,99293.31
2022-08-03T04:13:10.707Z,99289.13
2022-08-03T04:15:39.702Z,99291.16
2022-08-03T04:18:08.530Z,99286.75
2022-08-03T04:20:39.153Z,99285.56
2022-08-03T04:23:13.568Z,99291.00
2022-08-03T04:25:43.975Z,99286.41
2022-08-03T04:28:29.655Z,99284.34
2022-08-03T04:30:59.743Z,99292.28
2022-08-03T04:33:30.339Z,99292.13
2022-08-03T04:36:01.801Z,99288.88
2022-08-03T04:38:37.078Z,99289.34
2022-08-03T04:41:04.216Z,99295.25
2022-08-03T04:43:33.303Z,99288.59
2022-08-03T04:46:01.381Z,99296.38
2022-08-03T04:48:28.603Z,99300.78
2022-08-03T04:50:55.363Z,99291.25
2022-08-03T04:53:22.422Z,99293.88
2022-08-03T04:55:49.805Z,99299.31
2022-08-03T04:58:16.369Z,99298.94
2022-08-03T05:00:43.153Z,99302.97
2022-08-03T05:03:19.585Z,99297.81
2022-08-03T05:05:52.462Z,99306.59
2022-08-03T05:08:27.701Z,99312.13
2022-08-03T05:10:55.408Z,99306.72
2022-08-03T05:13:25.795Z,99303.09
2022-08-03T05:15:52.532Z,99301.16
2022-08-03T05:18:19.251Z,99299.84
2022-08-03T05:20:45.754Z,99304.44
2022-08-03T05:23:12.530Z,99308.97
2022-08-03T05:25:39.393Z,99284.25
2022-08-03T05:28:06.048Z,99244.44
2022-08-03T05:30:33.984Z,99242.00
2022-08-03T05:33:01.304Z,99248.84
2022-08-03T05:36:02.728Z,99235.53
2022-08-03T05:38:28.782Z,99235.97
2022-08-03T05:41:20.578Z,99234.59
2022-08-03T05:43:46.330Z,99237.81
2022-08-03T05:46:13.383Z,99239.19
2022-08-03T05:48:40.361Z,99239.25
2022-08-03T05:51:10.968Z,99238.78
2022-08-03T05:53:37.778Z,99243.94
2022-08-03T05:56:15.130Z,99240.84
2022-08-03T05:58:47.449Z,99242.47
2022-08-03T06:01:16.012Z,99240.81
2022-08-03T06:03:42.778Z,99241.16
2022-08-03T06:06:11.460Z,99250.94
2022-08-03T06:08:38.272Z,99245.69
2022-08-03T06:11:05.026Z,99254.41
2022-08-03T06:13:32.154Z,99252.69
2022-08-03T06:15:58.670Z,99256.63
2022-08-03T06:18:25.425Z,99254.63
2022-08-03T06:20:52.610Z,99266.84
2022-08-03T06:23:19.946Z,99271.22
2022-08-03T06:25:47.079Z,99267.31
2022-08-03T06:28:42.664Z,99261.59
2022-08-03T06:31:01.843Z,99259.03
2022-08-03T06:34:31.092Z,99260.41
2022-08-03T06:36:15.349Z,99258.41
2022-08-03T06:38:41.973Z,99266.97
2022-08-03T06:41:10.283Z,99263.09
2022-08-03T06:43:37.754Z,99262.59
2022-08-03T06:46:05.553Z,99258.53
2022-08-03T06:48:32.450Z,99272.56
2022-08-03T06:50:59.283Z,99270.41
2022-08-03T06:53:25.772Z,99267.81
2022-08-03T06:55:55.047Z,99273.19
2022-08-03T06:58:22.439Z,99268.91
2022-08-03T07:00:49.179Z,99269.16
2022-08-03T07:03:15.914Z,99277.25
2022-08-03T07:05:43.687Z,99279.44
2022-08-03T07:08:10.429Z,99274.38
2022-08-03T07:10:37.270Z,99266.72
2022-08-03T07:13:05.188Z,99272.28
2022-08-03T07:15:55.356Z,99270.34
2022-08-03T07:18:28.352Z,99271.31
2022-08-03T07:20:57.844Z,99268.03
2022-08-03T07:23:25.400Z,99266.63
2022-08-03T07:25:51.977Z,99258.53
2022-08-03T07:28:18.645Z,99264.16
2022-08-03T07:30:45.200Z,99254.75
2022-08-03T07:33:11.995Z,99260.00
2022-08-03T07:35:39.032Z,99260.94
2022-08-03T07:38:05.594Z,99256.72
2022-08-03T07:40:32.533Z,99259.06
2022-08-03T07:43:00.095Z,99253.69
2022-08-03T07:45:26.855Z,99250.78
2022-08-03T07:47:54.351Z,99257.53
2022-08-03T07:50:21.637Z,99266.94
2022-08-03T07:52:50.642Z,99256.72
2022-08-03T07:55:22.988Z,99261.22
2022-08-03T07:58:17.218Z,99256.53
2022-08-03T08:00:46.033Z,99262.34
2022-08-03T08:03:13.254Z,99262.19
2022-08-03T08:05:39.897Z,99263.03
2022-08-03T08:08:07.034Z,99255.09
2022-08-03T08:10:33.843Z,99256.66
2022-08-03T08:13:00.576Z,99247.25
2022-08-03T08:15:27.670Z,99250.28
2022-08-03T08:17:56.411Z,99248.22
2022-08-03T08:20:30.577Z,99253.50
2022-08-03T08:23:01.352Z,99252.91
2022-08-03T08:25:30.202Z,99245.66
2022-08-03T08:28:30.124Z,99239.16
2022-08-03T08:30:44.742Z,99248.31
2022-08-03T08:33:22.483Z,99244.56
2022-08-03T08:35:49.338Z,99247.38
2022-08-03T08:38:15.887Z,99247.69
2022-08-03T08:40:42.769Z,99241.91
2022-08-03T08:43:09.261Z,99250.19
2022-08-03T08:45:36.472Z,99245.53
2022-08-03T08:48:08.076Z,99242.34
2022-08-03T09:30:59.427Z,99223.19
2022-08-03T09:33:26.084Z,99217.81
2022-08-03T09:36:02.879Z,99220.94
2022-08-03T09:38:29.323Z,99216.34
2022-08-03T09:41:00.304Z,99210.56
2022-08-03T09:43:28.512Z,99214.75
2022-08-03T09:46:07.236Z,99221.44
2022-08-03T09:48:35.416Z,99222.53
2022-08-03T09:51:13.293Z,99217.88
2022-08-03T09:53:57.012Z,99220.13
2022-08-03T09:56:40.462Z,99219.03
2022-08-03T09:59:07.022Z,99210.44
2022-08-03T10:01:35.333Z,99204.34
2022-08-03T10:04:04.031Z,99214.84
2022-08-03T10:06:31.490Z,99212.94
2022-08-03T10:09:10.972Z,99213.97
2022-08-03T10:11:42.000Z,99216.75
2022-08-03T10:14:19.458Z,99211.22
2022-08-03T10:16:47.541Z,99206.56
2022-08-03T10:19:15.547Z,99207.94
2022-08-03T10:22:05.166Z,99200.44
2022-08-03T10:24:35.367Z,99202.63
2022-08-03T10:27:05.583Z,99198.69
2022-08-03T10:29:38.480Z,99194.53
2022-08-03T10:32:14.615Z,99189.53
2022-08-03T10:34:44.626Z,99195.81
2022-08-03T10:37:14.678Z,99180.25
2022-08-03T10:39:53.548Z,99188.22
2022-08-03T10:42:25.155Z,99186.84
2022-08-03T10:45:03.577Z,99175.44
2022-08-03T10:47:31.659Z,99168.41
2022-08-03T10:49:59.940Z,99167.81
2022-08-03T10:52:32.621Z,99165.00
2022-08-03T10:55:21.393Z,99172.00
2022-08-03T10:57:58.285Z,99167.47
2022-08-03T11:00:27.478Z,99171.19
2022-08-03T11:03:14.034Z,99162.28
2022-08-03T11:05:46.264Z,99157.72
2022-08-03T11:08:34.808Z,99156.88
2022-08-03T11:11:28.377Z,99160.66
2022-08-03T11:14:04.599Z,99159.84
2022-08-03T11:16:42.854Z,99155.81
2022-08-03T11:19:10.957Z,99147.81
2022-08-03T11:21:50.089Z,99144.22
2022-08-03T11:24:42.425Z,99151.84
2022-08-03T11:27:15.238Z,99157.94
2022-08-03T11:30:08.165Z,99144.94
2022-08-03T11:32:38.256Z,99147.84
2022-08-03T11:35:08.225Z,99147.00
2022-08-03T11:37:35.921Z,99146.59
2022-08-03T11:40:03.846Z,99148.00
2022-08-03T11:42:33.278Z,99148.44
2022-08-03T11:45:01.045Z,99142.28
2022-08-03T11:47:30.085Z,99137.34
2022-08-03T11:50:02.104Z,99130.22
2022-08-03T11:52:35.674Z,99135.69
2022-08-03T11:55:02.684Z,99141.56
2022-08-03T11:59:11.018Z,99137.34
2022-08-03T12:00:26.206Z,99132.69
2022-08-03T12:03:04.126Z,99121.34
2022-08-03T12:05:52.275Z,99128.81
2022-08-03T12:08:28.193Z,99123.72
2022-08-03T12:10:56.978Z,99122.34
2022-08-03T12:14:35.822Z,99126.84
2022-08-03T12:16:18.370Z,99121.09
2022-08-03T12:18:45.157Z,99111.75
2022-08-03T12:21:12.422Z,99119.94
2022-08-03T12:23:39.601Z,99121.41
2022-08-03T12:26:10.243Z,99118.94
2022-08-03T12:28:38.894Z,99107.97
2022-08-03T12:31:09.196Z,99109.56
2022-08-03T12:33:58.858Z,99103.69
2022-08-03T12:36:26.662Z,99105.94
2022-08-03T12:38:59.385Z,99105.94
2022-08-03T12:41:44.073Z,99115.03
2022-08-03T12:44:10.527Z,99114.75
2022-08-03T12:46:43.991Z,99111.78
2022-08-03T12:49:17.359Z,99109.00
2022-08-03T12:51:43.987Z,99115.03
2022-08-03T12:54:17.736Z,99107.50
2022-08-03T12:57:08.303Z,99106.94
2022-08-03T12:59:40.373Z,99107.03
2022-08-03T13:02:24.467Z,99112.22
2022-08-03T13:04:53.597Z,99100.66
2022-08-03T13:07:21.453Z,99104.38
2022-08-03T13:09:49.291Z,99103.44
2022-08-03T13:12:22.776Z,99101.69
2022-08-03T13:14:51.940Z,99098.75
2022-08-03T13:17:19.267Z,99097.75
2022-08-03T13:19:47.239Z,99093.53
2022-08-03T13:22:15.244Z,99093.13
2022-08-03T13:24:43.356Z,99092.09
2022-08-03T13:28:45.973Z,99088.16
2022-08-03T13:31:12.643Z,99085.69
2022-08-03T13:33:40.385Z,99089.72
2022-08-03T13:36:07.160Z,99076.88
2022-08-03T13:38:33.787Z,99070.50
2022-08-03T13:41:01.911Z,99074.59
2022-08-03T13:43:31.621Z,99066.69
2022-08-03T13:45:58.424Z,99075.81
2022-08-03T13:48:36.873Z,99069.81
2022-08-03T13:51:21.758Z,99068.66
2022-08-03T13:53:50.876Z,99063.22
2022-08-03T13:56:17.596Z,99066.13
2022-08-03T13:58:44.046Z,99063.41
2022-08-03T14:01:11.213Z,99058.16
2022-08-03T14:03:37.945Z,99057.19
2022-08-03T14:06:05.580Z,99058.34
2022-08-03T14:08:32.054Z,99050.09
2022-08-03T14:10:58.731Z,99053.28
2022-08-03T14:13:26.084Z,99053.56
2022-08-03T14:15:52.706Z,99059.34
2022-08-03T14:18:29.136Z,99056.47
2022-08-03T14:21:06.296Z,99042.41
2022-08-03T14:23:35.265Z,99039.56
2022-08-03T14:26:01.820Z,99037.88
2022-08-03T14:28:28.634Z,99051.06
2022-08-03T14:30:55.983Z,99035.88
2022-08-03T14:33:23.131Z,99033.50
2022-08-03T14:35:50.130Z,99030.22
2022-08-03T14:38:17.026Z,99028.22
2022-08-03T14:40:43.839Z,99028.03
2022-08-03T14:43:10.310Z,99020.88
2022-08-03T14:45:36.931Z,99023.63
2022-08-03T14:50:31.791Z,99020.13
2022-08-03T14:50:52.606Z,99014.31
2022-08-03T14:53:19.975Z,99024.00
2022-08-03T14:55:50.889Z,99023.22
2022-08-03T14:58:21.174Z,99015.84
2022-08-03T15:00:49.464Z,99013.00
2022-08-03T15:03:20.156Z,99004.03
2022-08-03T15:05:46.803Z,99000.97
2022-08-03T15:08:13.430Z,99011.22
2022-08-03T15:10:44.154Z,99008.34
2022-08-03T15:13:15.010Z,99006.28
2022-08-03T15:15:41.931Z,99005.28
2022-08-03T15:18:08.692Z,98996.94
2022-08-03T15:20:50.786Z,98993.50
2022-08-03T15:23:18.719Z,98995.56
2022-08-03T15:26:31.582Z,98990.50
2022-08-03T15:28:33.282Z,98992.88
2022-08-03T15:31:00.422Z,98980.91
2022-08-03T15:33:27.645Z,98982.28
2022-08-03T15:35:54.138Z,98981.47
2022-08-03T15:38:26.037Z,98985.59
2022-08-03T15:40:56.007Z,98980.94
2022-08-03T15:43:23.534Z,98979.09
2022-08-03T15:46:12.844Z,98978.41
2022-08-03T15:48:36.569Z,98968.56
2022-08-03T15:51:04.585Z,98978.84
2022-08-03T15:53:31.053Z,98976.00
2022-08-03T15:55:57.662Z,98977.31
2022-08-03T15:59:03.691Z,98973.22
2022-08-03T16:01:15.334Z,98969.34
2022-08-03T16:03:45.678Z,98963.97
2022-08-03T16:06:13.548Z,98969.34
2022-08-03T16:08:40.093Z,98957.59
2022-08-03T16:11:06.670Z,98953.28
2022-08-03T16:14:12.964Z,98958.66
2022-08-03T16:16:19.680Z,98951.34
2022-08-03T16:18:46.192Z,98954.50
2022-08-03T16:21:15.582Z,98951.00
2022-08-03T16:23:47.254Z,98947.50
2022-08-03T16:26:15.159Z,98944.03
2022-08-03T16:28:41.830Z,98947.44
2022-08-03T16:31:09.165Z,98947.38
2022-08-03T16:33:36.026Z,98948.28
2022-08-03T16:36:03.004Z,98950.66
2022-08-03T16:38:30.479Z,98943.56
2022-08-03T16:40:57.225Z,98950.63
2022-08-03T16:43:24.601Z,98949.38
2022-08-03T16:45:52.989Z,98949.38
2022-08-03T16:48:19.941Z,98950.63
2022-08-03T16:50:47.313Z,98942.59
2022-08-03T16:53:16.634Z,98941.47
2022-08-03T16:55:53.694Z,98943.84
2022-08-03T16:58:34.206Z,98937.47
2022-08-03T17:01:01.510Z,98945.19
2022-08-03T17:03:57.383Z,98944.78
2022-08-03T17:06:26.701Z,98949.19
2022-08-03T17:09:03.240Z,98943.00
2022-08-03T17:11:33.016Z,98944.72
2022-08-03T17:13:59.985Z,98939.63
2022-08-03T17:16:27.038Z,98948.38
2022-08-03T17:19:03.846Z,98941.53
2022-08-03T17:21:33.169Z,98943.91
2022-08-03T17:24:27.684Z,98948.34
2022-08-03T17:26:55.461Z,98944.44
2022-08-03T17:29:24.994Z,98940.47
2022-08-03T17:31:52.985Z,98936.56
2022-08-03T17:34:20.825Z,98947.75
2022-08-03T17:37:27.200Z,98944.38
2022-08-03T17:39:59.879Z,98952.91
2022-08-03T17:42:39.100Z,98941.06
2022-08-03T17:45:07.360Z,98956.63
2022-08-03T17:47:42.370Z,98946.13
2022-08-03T17:50:24.440Z,98952.69
2022-08-03T17:53:07.581Z,98947.72
2022-08-03T17:55:56.628Z,98948.53
2022-08-03T17:58:55.113Z,98948.69
2022-08-03T18:02:01.793Z,98948.19
2022-08-03T18:04:42.333Z,98946.63
2022-08-03T18:07:12.511Z,98943.31
2022-08-03T18:10:06.658Z,98948.72
2022-08-03T18:12:40.321Z,98944.19
2022-08-03T18:15:10.165Z,98951.25
2022-08-03T18:17:58.124Z,98952.78
2022-08-03T18:20:40.421Z,98951.69
2022-08-03T18:23:10.457Z,98954.25
2022-08-03T18:25:45.239Z,98954.31
2022-08-03T18:28:18.677Z,98952.47
2022-08-03T18:30:54.728Z,98949.75
2022-08-03T18:34:16.801Z,98957.81
2022-08-03T18:36:21.573Z,98954.25
2022-08-03T18:38:51.757Z,98955.13
2022-08-03T18:41:33.370Z,98957.84
2022-08-03T18:44:07.862Z,98954.19
2022-08-03T18:47:07.073Z,98960.72
2022-08-03T18:49:37.012Z,98960.13
2022-08-03T18:52:12.214Z,98954.00
2022-08-03T18:55:00.987Z,98956.88
2022-08-03T18:57:46.411Z,98954.03
2022-08-03T19:00:16.283Z,98954.78
2022-08-03T19:03:12.489Z,98966.56
2022-08-03T19:06:06.366Z,98964.50
2022-08-03T19:08:48.027Z,98972.50
2022-08-03T19:11:28.274Z,98967.78
2022-08-03T19:13:59.301Z,98983.56
2022-08-03T19:16:38.750Z,98991.16
2022-08-03T19:19:10.898Z,98989.94
2022-08-03T19:21:41.214Z,98995.06
2022-08-03T19:24:10.459Z,99000.50
2022-08-03T19:26:39.540Z,98986.19
2022-08-03T19:29:10.797Z,98990.13
2022-08-03T19:31:58.956Z,99002.34
2022-08-03T19:34:29.607Z,98990.00
2022-08-03T19:36:59.444Z,98997.53
2022-08-03T19:39:26.886Z,98995.75
2022-08-03T19:41:58.197Z,98993.47
2022-08-03T19:44:37.748Z,98996.50
2022-08-03T19:47:16.926Z,98993.25
2022-08-03T19:50:04.858Z,99003.81
2022-08-03T19:52:35.674Z,99004.00
2022-08-03T19:55:09.315Z,99001.50
2022-08-03T19:57:42.218Z,99004.97
2022-08-03T20:00:12.505Z,98999.63
2022-08-03T20:02:41.364Z,99005.03
2022-08-03T20:05:12.050Z,98996.41
2022-08-03T20:07:47.792Z,99003.63
2022-08-03T20:10:16.030Z,98999.38
2022-08-03T20:12:44.275Z,98994.25
2022-08-03T20:15:11.444Z,98995.34
2022-08-03T20:17:54.454Z,98993.25
2022-08-03T20:20:27.190Z,98993.13
2022-08-03T20:22:57.747Z,98991.94
2022-08-03T20:25:38.423Z,98994.78
2022-08-03T20:28:26.636Z,98992.66
2022-08-03T20:30:54.872Z,98984.31
2022-08-03T20:33:27.867Z,98997.91
2022-08-03T20:36:07.943Z,98996.09
2022-08-03T20:38:43.800Z,99001.47
2022-08-03T20:41:14.140Z,99006.81
2022-08-03T20:43:41.586Z,99002.06
2022-08-03T20:46:29.180Z,99009.09
2022-08-03T20:48:57.174Z,99002.88
2022-08-03T20:51:50.350Z,99004.06
2022-08-03T20:54:29.423Z,99002.03
2022-08-03T20:57:03.832Z,98999.88
2022-08-03T20:59:46.891Z,99004.56
2022-08-03T21:02:19.838Z,99010.13
2022-08-03T21:04:58.003Z,99003.94
2022-08-03T21:07:45.598Z,99012.00
2022-08-03T21:10:15.796Z,99005.34
2022-08-03T21:13:15.032Z,99007.44
2022-08-03T21:15:59.824Z,99002.59
2022-08-03T21:18:36.997Z,99005.66
2022-08-03T21:21:06.186Z,99000.41
2022-08-03T21:23:45.511Z,99003.47
2022-08-03T21:26:20.017Z,99003.19
2022-08-03T21:28:49.588Z,99000.66
2022-08-03T21:31:24.491Z,98998.72
2022-08-03T21:34:05.436Z,99002.34
2022-08-03T21:36:36.884Z,98996.50
2022-08-03T21:39:08.030Z,99004.25
2022-08-03T21:41:35.981Z,98999.59
2022-08-03T21:44:02.916Z,98993.75
2022-08-03T21:46:40.466Z,98993.84
2022-08-03T21:50:04.514Z,98996.44
2022-08-03T21:51:59.479Z,98996.88
2022-08-03T21:54:34.244Z,98995.66
2022-08-03T21:57:04.803Z,98991.25
2022-08-03T21:59:37.020Z,98998.25
2022-08-03T22:02:04.449Z,98990.72
2022-08-03T22:04:50.816Z,98995.81
2022-08-03T22:07:22.589Z,99001.41
2022-08-03T22:09:51.985Z,99001.09
2022-08-03T22:12:24.847Z,98997.59
2022-08-03T22:15:01.446Z,98994.09
2022-08-03T22:17:55.837Z,98993.28
2022-08-03T22:20:21.275Z,98996.63
2022-08-03T22:22:56.128Z,98989.97
2022-08-03T22:25:30.453Z,98993.97
2022-08-03T22:30:24.949Z,98997.56
2022-08-03T22:32:53.841Z,98994.66
2022-08-03T22:35:21.361Z,98989.25
2022-08-03T22:37:53.718Z,99001.00
2022-08-03T22:40:20.222Z,98997.44
2022-08-03T22:42:49.547Z,98995.75
2022-08-03T22:46:07.542Z,98995.59
2022-08-03T22:48:07.564Z,98994.44
2022-08-03T22:50:34.782Z,99001.75
2022-08-03T22:53:01.625Z,98999.28
2022-08-03T22:55:28.591Z,99000.53
2022-08-03T22:57:56.035Z,98992.41
2022-08-03T23:00:23.627Z,98994.94
2022-08-03T23:02:51.827Z,98989.50
2022-08-03T23:06:00.518Z,98997.94
2022-08-03T23:08:14.422Z,98998.00
2022-08-03T23:10:46.670Z,98996.97
2022-08-03T23:13:16.468Z,98998.88
2022-08-03T23:15:50.770Z,98994.69
2022-08-03T23:18:21.271Z,98987.56
2022-08-03T23:20:52.205Z,98998.69
2022-08-03T23:23:19.962Z,98998.09
2022-08-03T23:25:50.565Z,98995.56
2022-08-03T23:28:17.668Z,98993.88
2022-08-03T23:30:44.632Z,98994.31
2022-08-03T23:33:15.744Z,98993.06
2022-08-03T23:36:29.296Z,99000.63
2022-08-03T23:38:43.912Z,98994.78
2022-08-03T23:41:10.405Z,98992.28
2022-08-03T23:43:52.374Z,98999.66
2022-08-03T23:46:25.754Z,98994.00
2022-08-03T23:48:56.572Z,98993.81
2022-08-03T23:51:44.433Z,98990.41
2022-08-03T23:54:23.923Z,98986.63
2022-08-03T23:57:38.534Z,98991.47
